Homewood Airport

CJT8 · 曼尼托巴, 加拿大

METAR的历史 CJT8 · Homewood Airport

下面你可以看到过去几天的METARs。 选择年份以浏览从2007年开始的旧METAR。

2024年3月2日

时间 代码 天气 温度 能见度 天花板 METAR/SPECI
18:00
V
-8 °C 15 mi 11.000 ft 040° 040° 21 - 26 kt METAR CYWG 030000Z 04021G26KT 15SM FEW100 BKN110 BKN130 BKN210 M08/M14 A2997 RMK AC1AS6AC1CS1 AC TR CS TR SLP171
17:00
V
-8 °C 15 mi 10.000 ft 040° 040° 19 kt METAR CYWG 022300Z 04019KT 15SM FEW090 BKN100 BKN140 M08/M13 A2998 RMK AC2AS5AC1 AC TR SLP171
16:00
V
-7 °C 15 mi 10.000 ft 030° 030° 18 kt METAR CYWG 022200Z 03018KT 15SM BKN100 BKN250 M07/M13 A3000 RMK AS7CS1 CS TR SUN DIMLY VSBL SLP179
15:00
V
-7 °C 15 mi 12.000 ft 030° 030° 15 kt METAR CYWG 022100Z 03015KT 15SM FEW035 FEW070 BKN120 OVC260 M07/M12 A3002 RMK SC1AC1AS5CS2 SC TR SUN DIMLY VSBL SLP185
14:00
V
-6 °C 15 mi 13.000 ft 040° 040° 11 - 17 kt METAR CYWG 022000Z 04011G17KT 15SM FEW070 FEW085 BKN130 BKN150 OVC260 M06/M12 A3004 RMK AC1AC1AS4AS1CS2 AC TR SUN DIMLY VSBL SLP193
13:00
V
-6 °C 15 mi 16.000 ft 040° 040° 12 kt METAR CYWG 021900Z 04012KT 15SM FEW045 SCT085 BKN160 OVC170 M06/M12 A3004 RMK SC2AS1AC3AS2 SUN DIMLY VSBL SLP192
12:00
V
-6 °C 15 mi 26.000 ft 060° 060° 15 - 20 kt METAR CYWG 021800Z 06015G20KT 15SM FEW110 SCT150 SCT160 OVC260 M06/M13 A3005 RMK AC1AS2AC1CS4 SUN DIMLY VSBL SLP196
11:00
V
-7 °C 15 mi 17.000 ft 060° 060° 13 kt METAR CYWG 021700Z 06013KT 15SM SCT160 BKN170 OVC210 M07/M13 A3007 RMK AC3AC2CS3 SLP200
10:00
V
-8 °C 15 mi 19.000 ft 060° 060° 11 kt METAR CYWG 021600Z 06011KT 15SM FEW170 SCT180 BKN190 BKN200 M08/M13 A3004 RMK AC2AC2AS1CS2 SLP192
09:00
V
-9 °C 15 mi 19.000 ft 040° 040° 9 kt METAR CYWG 021500Z 04009KT 15SM BKN190 BKN200 BKN210 M09/M13 A3002 RMK AS5CI1CS1 SLP186
08:00
V
-10 °C 15 mi 20.000 ft 040° 040° 7 kt METAR CYWG 021400Z 04007KT 15SM BKN200 M10/M13 A3002 RMK CI7 SLP183
07:00
V
-10 °C 15 mi 20.000 ft 050° 050° 6 kt METAR CYWG 021300Z 05006KT 15SM BKN200 M10/M13 A3000 RMK CI6 SLP177
06:00
V
-11 °C 15 mi 21.000 ft 030° 030° 6 kt METAR CYWG 021200Z 03006KT 15SM BKN210 M11/M13 A3001 RMK CI7 SLP181
05:00
V
-10 °C 15 mi 23.000 ft 030° 030° 5 kt METAR CYWG 021100Z 03005KT 15SM BKN230 M10/M12 A3000 RMK CI7 SLP178
04:00
V
-9 °C 15 mi 24.000 ft 020° 020° 7 kt METAR CYWG 021000Z 02007KT 15SM BKN240 M09/M12 A2999 RMK CI7 SLP174
03:00
V
-8 °C 15 mi 22.000 ft 020° 020° 8 kt METAR CYWG 020900Z 02008KT 15SM BKN220 M08/M11 A2999 RMK CI7 SLP171
02:00
V
-7 °C 15 mi 18.000 ft 030° 030° 8 kt METAR CYWG 020800Z 03008KT 15SM BKN180 BKN240 M07/M10 A2999 RMK AC5CI2 SLP171
01:00
V
-6 °C 15 mi 24.000 ft 030° 030° 6 kt METAR CYWG 020700Z 03006KT 15SM FEW170 BKN240 M06/M10 A2998 RMK AC3CI4 SLP166
00:00
V
-6 °C 15 mi 16.000 ft 360° 360° 6 kt METAR CYWG 020600Z 36006KT 15SM BKN160 M06/M08 A2993 RMK AC7 SLP152

2024年3月1日

时间 代码 天气 温度 能见度 天花板 METAR/SPECI
23:00
V
-5 °C 15 mi 15.000 ft 340° 340° 10 kt METAR CYWG 020500Z 34010KT 15SM BKN150 M05/M08 A2990 RMK AC6 SLP142
22:00
V
-5 °C 15 mi 14.000 ft 340° 340° 11 kt METAR CYWG 020400Z 34011KT 15SM BKN140 M05/M08 A2987 RMK AC7 SLP131
21:00
V
-4 °C 15 mi 17.000 ft 330° 330° 14 kt METAR CYWG 020300Z 33014KT 15SM SCT140 BKN170 M04/M07 A2986 RMK AC3AC4 SLP127
20:00
V
-3 °C 15 mi 16.000 ft 300° 300° 9 kt METAR CYWG 020200Z 30009KT 15SM BKN160 BKN250 M03/M05 A2983 RMK AC6CI1 CI TR VIRGA SLP116
19:00
V
-2 °C 15 mi 14.000 ft 300° 300° 9 kt METAR CYWG 020100Z 30009KT 15SM BKN140 BKN250 M02/M04 A2978 RMK AC5CI2 SLP102
18:00
V
-1 °C 15 mi 15.000 ft 320° 320° 10 kt METAR CYWG 020000Z 32010KT 15SM FEW025 BKN150 BKN250 M01/M03 A2973 RMK SC1AC6CI1 SC TR SLP085
17:00
V
0 °C 15 mi 14.000 ft 310° 310° 13 - 19 kt METAR CYWG 012300Z 31013G19KT 15SM FEW025 BKN140 00/M03 A2972 RMK SC1AC6 SLP079
16:00
V
1 °C 15 mi 12.000 ft 320° 320° 14 kt METAR CYWG 012200Z 32014KT 15SM BKN120 OVC250 01/M02 A2967 RMK AC7CI1 PRESRR SLP063
15:00
V
2 °C 15 mi 8.600 ft 310° 310° 13 kt METAR CYWG 012100Z 31013KT 15SM BKN086 OVC250 02/M02 A2964 RMK AC7CC1 PRESRR SLP053
14:52
V
2 °C 15 mi 8.200 ft 320° 320° 10 kt METAR CYWG 012052Z 32010KT 15SM BKN082 OVC250 02/M00 A2963 RMK AC7CI1 PRESRR SLP048
14:00
V
4 °C 15 mi 11.000 ft 270° 270° 11 kt METAR CYWG 012000Z 27011KT 15SM BKN110 BKN250 04/M01 A2958 RMK AC5CI2 SLP031
13:00
V
3 °C 15 mi 17.000 ft 220° 220° 7 kt METAR CYWG 011900Z 22007KT 15SM SCT110 BKN170 BKN250 03/M02 A2953 RMK AC4AC1CI2 SLP017
12:00
V
2 °C 15 mi 25.000 ft 210° 210° 11 kt METAR CYWG 011800Z 21011KT 15SM FEW130 FEW160 BKN250 02/M03 A2953 RMK AC1AC2CI5 AC TR SLP016
11:00
V
0 °C 15 mi 25.000 ft 190° 190° 14 - 22 kt METAR CYWG 011700Z 19014G22KT 15SM SCT170 BKN250 00/M05 A2950 RMK AC3CI3 SLP006
10:00
V
0 °C 15 mi - 180° 180° 20 - 26 kt METAR CYWG 011600Z 18020G26KT 15SM SCT250 M00/M06 A2950 RMK CI3 SLP006
09:00
V
-2 °C 15 mi - 180° 180° 18 - 23 kt METAR CYWG 011500Z 18018G23KT 15SM FEW150 FEW250 M02/M08 A2950 RMK AC1CI1 AC TR SLP008
08:00
V
-4 °C 15 mi - 160° 160° 14 kt METAR CYWG 011400Z 16014KT 15SM SCT150 SCT240 M04/M09 A2950 RMK AC3CI1 CI TR SLP009
07:00
V
-6 °C 15 mi - 150° 150° 12 kt METAR CYWG 011300Z 15012KT 15SM SCT240 M06/M10 A2952 RMK CI4 SLP016
06:20
V
-7 °C 15 mi - 140° 140° 11 kt METAR CYWG 011220Z 14011KT 15SM FEW240 M07/M10 A2952 RMK CI1 SLP016
06:00
V
-7 °C 15 mi - 140° 140° 11 kt METAR CYWG 011200Z 14011KT 15SM SKC M07/M11 A2954 RMK SLP021
05:00
V
-7 °C 15 mi - 140° 140° 12 kt METAR CYWG 011100Z 14012KT 15SM FEW150 M07/M11 A2957 RMK AC2 SLP030
04:00
V
-7 °C 15 mi - 130° 130° 13 kt METAR CYWG 011000Z 13013KT 15SM SKC M07/M12 A2959 RMK SLP039
03:00
V
-8 °C 15 mi - 130° 130° 11 kt METAR CYWG 010900Z 13011KT 15SM SCT250 M08/M12 A2962 RMK CI4 SLP049
02:00
V
-8 °C 15 mi 24.000 ft 130° 130° 12 kt METAR CYWG 010800Z 13012KT 15SM BKN240 M08/M12 A2964 RMK CI6 SLP057
01:00
V
-9 °C 15 mi - 120° 120° 11 kt METAR CYWG 010700Z 12011KT 15SM FEW240 M09/M13 A2967 RMK CI1 CI TR SLP068
00:00
V
-9 °C 15 mi - 110° 110° 12 - 17 kt METAR CYWG 010600Z 11012G17KT 15SM FEW240 M09/M14 A2969 RMK CI1 CI TR SLP076

2024年2月29日

时间 代码 天气 温度 能见度 天花板 METAR/SPECI
23:00
V
-10 °C 15 mi - 110° 110° 14 kt METAR CYWG 010500Z 11014KT 15SM SKC M10/M14 A2972 RMK SLP085
22:00
V
-10 °C 15 mi - 110° 110° 12 - 18 kt METAR CYWG 010400Z 11012G18KT 15SM SKC M10/M15 A2976 RMK SLP101
21:00
V
-10 °C 15 mi - 110° 110° 14 - 20 kt METAR CYWG 010300Z 11014G20KT 15SM SKC M10/M15 A2979 RMK SLP112
20:00
V
-10 °C 15 mi - 110° 110° 15 kt METAR CYWG 010200Z 11015KT 15SM FEW250 M10/M15 A2982 RMK CI2 SLP121
19:00
V
-9 °C 15 mi - 110° 110° 12 kt METAR CYWG 010100Z 11012KT 15SM FEW170 FEW200 FEW250 M09/M15 A2986 RMK AC1CI1CI1 AC TR SLP135
18:00
V
-9 °C 15 mi 26.000 ft 110° 110° 11 - 20 kt METAR CYWG 010000Z 11011G20KT 15SM FEW085 SCT210 BKN260 M09/M15 A2986 RMK AC2CI1CI2 SLP136
17:00
V
-8 °C 15 mi - 110° 110° 15 kt METAR CYWG 292300Z 11015KT 15SM FEW090 FEW160 FEW220 SCT260 M08/M14 A2987 RMK AC1AS1CI1CI2 AC TR SLP140
16:00
V
-8 °C 15 mi 26.000 ft 120° 120° 14 kt METAR CYWG 292200Z 12014KT 15SM FEW095 FEW140 FEW170 SCT200 BKN260 M08/M14 A2988 RMK AC1AC1AS1CS1CS4 AC TR HALO SLP143
15:00
V
-9 °C 15 mi 21.000 ft 100° 100° 15 - 21 kt METAR CYWG 292100Z 10015G21KT 15SM FEW100 FEW120 FEW140 FEW170 BKN210 M09/M15 A2991 RMK AC1AC1AS1AS1CS5 AC TR AC TR HALO SLP152
14:00
V
-10 °C 15 mi 26.000 ft 110° 110° 15 - 22 kt METAR CYWG 292000Z 11015G22KT 15SM SCT100 SCT160 BKN260 M10/M16 A2994 RMK AC3AC1CS3 SLP162
13:00
V
-10 °C 12 mi 9.300 ft 110° 110° 16 - 21 kt METAR CYWG 291900Z 11016G21KT 12SM DRSN BKN093 BKN100 BKN170 M10/M16 A2996 RMK AC6AC1AC1 AC TR SLP172
12:00
V
-12 °C 11 mi 9.500 ft 110° 110° 18 - 24 kt METAR CYWG 291800Z 11018G24KT 11SM DRSN SCT080 BKN095 BKN100 M12/M17 A2999 RMK AC3AC4AC1 AC TR SLP180
11:00
V
-13 °C 12 mi 9.500 ft 110° 110° 18 kt METAR CYWG 291700Z CCA 11018KT 12SM DRSN SCT082 BKN095 M13/M18 A3000 RMK AC4AC3 SLP186
10:00
V
-14 °C 12 mi 6.500 ft 120° 120° 18 kt METAR CYWG 291600Z 12018KT 12SM DRSN SCT055 BKN065 BKN075 BKN100 BKN120 M14/M19 A3004 RMK SC3SC2AC1AC1AC1 SLP198
09:54
V
-14 °C 12 mi 6.500 ft 110° 110° 17 kt METAR CYWG 291554Z 11017KT 12SM DRSN SCT055 BKN065 BKN075 BKN100 OVC120 M14/M19 A3004 RMK SC3SC2AC1AC1AC1 SLP199
09:00
V
-15 °C 12 mi 6.700 ft 120° 120° 15 - 22 kt METAR CYWG 291500Z 12015G22KT 12SM -SN DRSN FEW050 SCT060 OVC067 OVC080 M15/M19 A3006 RMK SC1SC2AS5AC1 AC TR PCPN VRY LGT /S01/ SLP208
08:42
V
-16 °C 11 mi 5.000 ft 120° 120° 16 - 22 kt METAR CYWG 291442Z 12016G22KT 11SM -SN DRSN BKN050 BKN060 OVC080 M16/M19 A3007 RMK SC6SC1AC1 SLP208
08:08
M
-16 °C 3 mi 6.100 ft 110° 110° 16 kt METAR CYWG 291408Z 11016KT 3SM -SN OVC061 M16/M19 A3008 RMK SC8 SLP214
08:00
I
-16 °C 2 mi 4.000 ft 110° 110° 13 - 19 kt METAR CYWG 291400Z 11013G19KT 2SM -SN VV040 M16/M19 A3009 RMK SN8 SLP215
07:17
I
-16 °C 2 mi 3.200 ft 120° 120° 12 kt METAR CYWG 291317Z 12012KT 2SM -SN VV032 M16/M20 A3011 RMK SN8 SLP223
07:00
V
-17 °C 8 mi 5.500 ft 120° 120° 11 kt METAR CYWG 291300Z 12011KT 8SM -SN VV055 M17/M21 A3011 RMK SN8 SLP224
06:00
V
-18 °C 15 mi 7.900 ft 110° 110° 9 kt METAR CYWG 291200Z 11009KT 15SM -SN SCT030 BKN079 M18/M21 A3012 RMK SC4AC3 SLP228
05:00
V
-20 °C 15 mi 3.300 ft 100° 100° 5 kt METAR CYWG 291100Z 10005KT 15SM BKN033 M20/M22 A3015 RMK SC6 SLP236
04:00
V
-19 °C 15 mi - 120° 120° 8 kt METAR CYWG 291000Z 12008KT 15SM SKC M19/M22 A3015 RMK SLP239
03:00
V
-20 °C 15 mi - 150° 150° 7 kt METAR CYWG 290900Z 15007KT 15SM SKC M20/M23 A3017 RMK SLP244
02:00
V
-20 °C 15 mi - 120° 120° 7 kt METAR CYWG 290800Z 12007KT 15SM FEW130 M20/M22 A3017 RMK AC1 AC TR SLP245
01:00
V
-20 °C 15 mi - 110° 110° 5 kt METAR CYWG 290700Z 11005KT 15SM FEW130 SCT160 M20/M23 A3018 RMK AC1AC2 SLP249
00:00
V
-20 °C 15 mi - 160° 160° 6 kt METAR CYWG 290600Z 16006KT 15SM SCT170 M20/M22 A3020 RMK AC4 SLP255